Time;durP1;ratioP1;P1;durP2;ratioP2;P2;SDS_P1;SDS_P2;PMS_P1;PMS_P2;Temp;Humidity;BMP_temperature;BMP_pressure;BME280_temperature;BME280_humidity;BME280_pressure;Samples;Min_cycle;Max_cycle;Signal;HPM_P1;HPM_P2
2022/05/02 00:02:12;;;;;;;3.60;3.30;;;15.90;94.30;;;16.62;47.24;101588.19;4922216;28;98680;-66
2022/05/02 00:04:38;;;;;;;9.37;8.50;;;16.00;94.20;;;16.64;47.00;101587.22;4930754;28;111854;-66
2022/05/02 00:07:04;;;;;;;4.03;3.53;;;16.10;93.30;;;16.66;47.28;101595.16;4940969;28;97456;-66
2022/05/02 00:09:30;;;;;;;4.30;3.90;;;16.10;94.00;;;16.62;47.44;101590.88;4940207;28;97884;-66
2022/05/02 00:11:55;;;;;;;5.23;4.63;;;16.00;93.80;;;16.64;47.22;101591.69;4954754;28;98193;-65
2022/05/02 00:14:21;;;;;;;3.23;3.00;;;16.10;93.80;;;16.62;47.22;101588.19;4924431;28;118975;-67
2022/05/02 00:16:47;;;;;;;5.00;3.70;;;16.00;94.20;;;16.64;47.39;101586.38;4936523;28;96967;-64
2022/05/02 00:19:13;;;;;;;4.00;3.70;;;16.10;93.90;;;16.61;47.30;101583.81;4954834;28;96607;-64
2022/05/02 00:21:38;;;;;;;3.50;3.20;;;16.00;94.10;;;16.61;47.25;101586.47;4939358;28;98133;-64
2022/05/02 00:24:04;;;;;;;6.47;5.87;;;16.00;93.80;;;16.60;47.35;101584.75;4942281;28;97353;-64
2022/05/02 00:26:30;;;;;;;4.47;3.37;;;16.00;94.10;;;16.60;47.46;101582.09;4937479;28;97909;-64
2022/05/02 00:28:56;;;;;;;3.40;3.10;;;16.00;94.50;;;16.64;47.24;101581.03;4942991;28;106303;-63
2022/05/02 00:31:22;;;;;;;3.30;3.00;;;16.10;94.40;;;16.70;47.13;101569.25;4938384;28;123666;-68
2022/05/02 00:33:47;;;;;;;3.47;3.17;;;16.30;94.00;;;16.74;47.02;101568.16;4942136;28;122465;-64
2022/05/02 00:36:13;;;;;;;3.20;2.90;;;16.30;93.70;;;16.75;46.83;101573.41;4940400;28;111866;-64
2022/05/02 00:38:39;;;;;;;7.80;6.07;;;16.30;93.40;;;16.77;46.56;101566.22;4919924;28;96983;-65
2022/05/02 00:41:05;;;;;;;5.30;3.87;;;16.30;92.90;;;16.74;46.96;101561.03;4930999;28;97388;-64
2022/05/02 00:43:31;;;;;;;4.17;3.87;;;16.20;93.30;;;16.74;46.88;101558.38;4919194;28;104613;-64
2022/05/02 00:45:57;;;;;;;4.67;4.27;;;16.20;93.90;;;16.69;46.68;101554.22;4921993;28;97408;-64
2022/05/02 00:48:23;;;;;;;3.00;2.80;;;16.10;93.30;;;16.66;47.14;101547.19;4920928;28;98991;-67
2022/05/02 00:50:49;;;;;;;3.60;3.30;;;16.10;94.10;;;16.65;47.12;101548.13;4936907;28;97525;-64
2022/05/02 00:53:21;;;;;;;5.23;4.73;;;16.00;94.10;;;16.63;47.00;101544.66;4963004;28;103884;-64
2022/05/02 00:55:47;;;;;;;8.10;7.30;;;16.00;93.60;;;16.60;46.79;101531.47;4951944;28;97288;-64
2022/05/02 00:58:15;;;;;;;7.97;7.23;;;16.00;93.50;;;16.52;47.23;101545.19;4956167;28;105046;-64
2022/05/02 01:00:42;;;;;;;8.00;6.87;;;15.90;94.10;;;16.46;47.22;101547.25;4938135;28;99985;-64
2022/05/02 01:03:11;;;;;;;7.33;6.63;;;15.80;93.80;;;16.34;47.62;101541.53;4941347;28;99344;-64
2022/05/02 01:08:33;;;;;;;4.77;4.37;;;15.60;94.30;;;16.33;47.72;101553.13;4939375;28;97098;-64
2022/05/02 01:11:00;;;;;;;3.43;3.13;;;15.70;93.90;;;16.25;47.80;101547.28;4959478;28;96931;-64
2022/05/02 01:13:47;;;;;;;5.00;4.60;;;15.60;94.60;;;16.28;47.86;101551.63;4964832;28;97975;-65
2022/05/02 01:16:21;;;;;;;4.10;3.80;;;15.60;94.50;;;16.31;47.88;101552.31;4954014;28;96826;-65
2022/05/02 01:18:49;;;;;;;5.93;5.33;;;15.70;94.20;;;16.28;47.89;101544.50;4953172;28;97468;-65
2022/05/02 01:21:25;;;;;;;4.90;4.50;;;15.60;94.40;;;16.30;47.91;101537.28;4955843;28;98817;-64
2022/05/02 01:23:59;;;;;;;3.60;3.30;;;15.60;94.20;;;16.33;47.74;101534.47;4939380;28;101170;-64
2022/05/02 01:26:25;;;;;;;4.73;4.33;;;15.70;94.80;;;16.36;47.73;101538.81;4943590;28;96865;-65
2022/05/02 01:28:56;;;;;;;3.63;3.33;;;15.80;94.00;;;16.39;47.90;101537.81;4945465;28;114215;-64
2022/05/02 01:31:22;;;;;;;3.97;3.57;;;15.80;94.00;;;16.42;47.63;101533.22;4953303;28;97266;-69
2022/05/02 01:33:51;;;;;;;4.03;3.43;;;15.90;94.10;;;16.44;47.59;101536.66;4952648;28;101201;-64
2022/05/02 01:36:19;;;;;;;4.90;4.50;;;15.90;94.20;;;16.47;47.47;101530.31;4949150;28;97084;-65
2022/05/02 01:38:46;;;;;;;5.07;4.57;;;15.90;94.30;;;16.48;47.51;101518.72;4957403;28;96954;-64
2022/05/02 01:41:12;;;;;;;4.53;3.60;;;15.90;94.30;;;16.49;47.66;101516.03;4968538;28;97514;-64
2022/05/02 01:43:39;;;;;;;6.00;5.43;;;15.90;94.30;;;16.50;47.74;101522.22;4934101;28;97389;-65
2022/05/02 01:46:07;;;;;;;9.73;8.63;;;15.90;94.10;;;16.46;47.59;101523.28;4942160;28;97121;-64
2022/05/02 01:48:34;;;;;;;4.17;3.77;;;15.80;94.10;;;16.44;47.58;101525.16;4939312;28;97131;-64
2022/05/02 01:51:00;;;;;;;4.40;4.00;;;15.80;94.70;;;16.41;47.81;101527.97;4949101;28;96887;-64
2022/05/02 01:53:27;;;;;;;6.33;5.67;;;15.70;94.40;;;16.38;47.78;101530.78;4939494;28;103373;-65
2022/05/02 01:55:53;;;;;;;5.40;4.27;;;15.70;94.60;;;16.38;47.88;101536.97;4953052;28;97857;-64
2022/05/02 01:58:19;;;;;;;3.67;3.37;;;15.70;94.90;;;16.40;47.93;101529.75;4974444;28;97486;-64
2022/05/02 02:00:45;;;;;;;4.07;3.67;;;15.80;94.90;;;16.43;47.72;101528.75;4945482;28;97273;-64
2022/05/02 02:03:11;;;;;;;5.27;4.07;;;15.80;94.50;;;16.46;47.73;101528.59;4956601;28;97143;-65
2022/05/02 02:05:49;;;;;;;4.10;3.70;;;15.90;94.50;;;16.45;47.41;101519.75;4944143;28;103115;-64
2022/05/02 02:08:32;;;;;;;3.30;3.00;;;15.90;94.50;;;16.49;47.45;101523.13;4938422;28;96951;-64
2022/05/02 02:11:01;;;;;;;4.03;3.60;;;15.90;94.80;;;16.50;47.33;101524.88;4934629;28;102831;-64
2022/05/02 02:13:31;;;;;;;5.47;4.97;;;16.00;94.40;;;16.51;47.56;101523.94;4903170;28;99774;-68
2022/05/02 02:16:00;;;;;;;3.93;3.27;;;16.00;94.40;;;16.54;47.31;101522.00;4940537;28;97925;-64
2022/05/02 02:18:26;;;;;;;4.43;4.03;;;16.00;94.60;;;16.55;47.52;101522.84;4936440;28;97403;-65
2022/05/02 02:20:55;;;;;;;10.17;7.60;;;16.00;94.50;;;16.54;47.44;101515.81;4955413;28;97783;-64
2022/05/02 02:23:22;;;;;;;4.23;3.83;;;16.00;94.40;;;16.54;47.45;101521.13;4935736;28;97126;-64
2022/05/02 02:25:48;;;;;;;4.63;4.23;;;15.90;94.70;;;16.55;47.43;101517.53;4932590;28;97174;-64
2022/05/02 02:28:15;;;;;;;4.70;4.30;;;16.00;94.60;;;16.57;47.31;101520.97;4930020;28;96836;-65
2022/05/02 02:30:43;;;;;;;4.77;4.37;;;16.00;94.40;;;16.55;47.54;101517.53;4946396;28;97008;-65
2022/05/02 02:33:08;;;;;;;3.93;3.57;;;15.90;94.40;;;16.53;47.34;101519.41;4957349;28;99242;-64
2022/05/02 02:35:34;;;;;;;5.43;4.93;;;15.90;94.80;;;16.55;47.63;101512.19;4933775;28;125169;-65
2022/05/02 02:38:00;;;;;;;3.70;3.40;;;16.00;94.30;;;16.55;47.48;101512.19;4935916;28;97480;-64
2022/05/02 02:40:26;;;;;;;4.70;4.30;;;15.90;94.90;;;16.55;47.40;101513.06;4945881;28;115009;-65
2022/05/02 02:42:52;;;;;;;4.23;3.57;;;15.90;94.50;;;16.56;47.50;101503.28;4937571;28;130556;-64
2022/05/02 02:45:18;;;;;;;4.83;4.43;;;16.00;94.60;;;16.57;47.35;101510.31;4925798;28;97287;-64
2022/05/02 02:47:44;;;;;;;5.90;5.37;;;16.00;94.50;;;16.52;47.46;101507.88;4941822;28;108952;-64
2022/05/02 02:50:10;;;;;;;3.40;3.10;;;15.90;94.50;;;16.50;47.58;101492.91;4935676;28;97011;-64
2022/05/02 02:52:37;;;;;;;5.33;4.83;;;15.90;95.00;;;16.50;47.37;101487.59;4933015;28;97494;-64
2022/05/02 02:55:03;;;;;;;3.90;3.60;;;15.90;94.70;;;16.48;47.53;101484.97;4943659;28;97371;-64
2022/05/02 02:57:29;;;;;;;6.80;6.13;;;15.90;94.80;;;16.46;47.75;101480.66;4956199;28;97311;-65
2022/05/02 02:59:55;;;;;;;4.87;4.40;;;15.90;94.60;;;16.46;47.57;101486.00;4951053;28;98871;-64
2022/05/02 03:02:21;;;;;;;4.47;4.07;;;15.80;94.60;;;16.46;47.36;101483.31;4946361;28;110059;-64
2022/05/02 03:07:32;;;;;;;6.60;6.00;;;15.90;94.80;;;16.50;47.47;101479.59;4944699;28;96549;-65
2022/05/02 03:09:58;;;;;;;5.40;4.90;;;16.00;94.50;;;16.48;47.35;101484.97;4936816;28;113988;-64
2022/05/02 03:12:24;;;;;;;4.97;3.93;;;15.90;94.70;;;16.50;47.45;101487.59;4952387;28;96974;-65
2022/05/02 03:14:50;;;;;;;3.50;3.20;;;15.90;95.00;;;16.52;47.41;101488.38;4936832;28;97459;-64
2022/05/02 03:17:16;;;;;;;3.47;3.17;;;16.00;95.00;;;16.56;47.47;101481.97;4935243;28;101365;-64
2022/05/02 03:19:42;;;;;;;5.17;4.67;;;16.10;94.70;;;16.57;47.37;101483.69;4934131;28;97596;-64
2022/05/02 03:22:08;;;;;;;5.70;5.10;;;16.10;94.50;;;16.52;47.49;101481.25;4936556;28;103506;-64
2022/05/02 03:24:34;;;;;;;7.83;6.57;;;15.90;94.70;;;16.50;47.73;101482.28;4934688;28;97348;-64
2022/05/02 03:27:00;;;;;;;4.17;3.77;;;15.90;94.70;;;16.49;47.39;101475.19;4935626;28;120281;-64
2022/05/02 03:29:26;;;;;;;4.30;3.90;;;15.80;95.00;;;16.48;47.85;101476.13;4935296;28;97887;-65
2022/05/02 03:31:52;;;;;;;4.93;4.53;;;15.80;95.10;;;16.49;47.86;101475.19;4941443;28;105794;-64
2022/05/02 03:34:17;;;;;;;8.00;6.67;;;15.80;94.90;;;16.49;47.47;101469.84;4947291;28;110782;-64
2022/05/02 03:36:43;;;;;;;5.03;4.00;;;15.90;94.90;;;16.50;47.71;101471.63;4934387;28;103020;-64
2022/05/02 03:39:09;;;;;;;3.53;3.23;;;15.90;95.00;;;16.51;47.47;101468.88;4938951;28;98753;-64
2022/05/02 03:41:35;;;;;;;3.63;3.33;;;15.90;95.10;;;16.52;47.71;101475.06;4953320;28;97187;-64
2022/05/02 03:44:01;;;;;;;3.80;3.50;;;15.90;95.00;;;16.52;47.54;101467.94;4959175;28;97104;-64
2022/05/02 03:46:27;;;;;;;3.63;3.33;;;16.00;95.10;;;16.54;47.31;101473.19;4968635;28;114585;-65
2022/05/02 03:48:53;;;;;;;4.93;4.53;;;16.00;95.00;;;16.55;47.31;101464.25;4936606;28;99204;-65
2022/05/02 03:51:19;;;;;;;6.10;5.50;;;16.00;94.80;;;16.55;47.57;101469.59;4936468;28;97596;-65
2022/05/02 03:53:44;;;;;;;12.27;10.03;;;16.00;94.80;;;16.48;47.59;101465.47;4946300;28;96863;-65
2022/05/02 03:56:10;;;;;;;14.17;10.73;;;15.90;94.80;;;16.47;47.62;101466.41;4942669;28;106102;-65
2022/05/02 03:58:36;;;;;;;13.67;10.90;;;15.80;95.10;;;16.47;47.65;101482.38;4953015;28;99772;-65
2022/05/02 04:01:02;;;;;;;11.27;10.27;;;15.80;95.10;;;16.50;47.62;101474.28;4944576;28;125667;-66
2022/05/02 04:03:28;;;;;;;7.73;6.93;;;16.00;94.80;;;16.54;47.30;101473.19;4933487;28;97366;-65
2022/05/02 04:05:54;;;;;;;8.80;7.30;;;16.10;94.50;;;16.53;47.50;101468.81;4956489;28;105574;-65
2022/05/02 04:08:20;;;;;;;7.03;6.33;;;16.00;94.30;;;16.48;47.37;101474.31;4950797;28;97371;-65
2022/05/02 04:10:46;;;;;;;11.63;9.90;;;15.90;94.50;;;16.40;47.32;101470.31;4948058;28;97192;-65
2022/05/02 04:13:11;;;;;;;11.87;10.63;;;15.80;94.80;;;16.38;47.88;101477.50;4944189;28;97824;-65
2022/05/02 04:15:37;;;;;;;11.23;9.93;;;15.70;95.40;;;16.33;47.67;101469.72;4948730;28;97068;-65
2022/05/02 04:18:04;;;;;;;9.33;8.33;;;15.60;95.10;;;16.30;47.87;101469.88;4946310;28;97638;-63
2022/05/02 04:20:29;;;;;;;4.30;3.90;;;15.60;95.20;;;16.30;48.04;101470.72;4952985;28;97143;-63
2022/05/02 04:22:56;;;;;;;5.10;4.60;;;15.60;95.50;;;16.30;47.87;101470.72;4945628;28;96777;-63
2022/05/02 04:25:22;;;;;;;5.70;5.10;;;15.70;95.20;;;16.30;47.86;101470.72;4925737;28;96720;-63
2022/05/02 04:27:48;;;;;;;5.80;4.83;;;15.70;95.30;;;16.29;47.76;101471.66;4928949;28;118614;-63
2022/05/02 04:30:14;;;;;;;6.07;5.10;;;15.70;95.30;;;16.31;48.04;101472.47;4946686;28;104332;-63
2022/05/02 04:32:39;;;;;;;8.00;7.20;;;15.70;95.40;;;16.30;47.97;101468.06;4927347;28;96963;-63
2022/05/02 04:35:06;;;;;;;5.53;4.97;;;15.70;95.30;;;16.31;48.03;101479.59;4918012;28;110821;-63
2022/05/02 04:37:32;;;;;;;5.60;5.10;;;15.70;95.30;;;16.29;48.13;101474.34;4926600;28;98897;-63
2022/05/02 04:39:58;;;;;;;5.70;4.87;;;15.70;95.40;;;16.30;48.05;101476.06;4935172;28;100796;-64
2022/05/02 04:42:24;;;;;;;4.00;3.70;;;15.70;95.40;;;16.32;48.07;101479.50;4928841;28;96968;-66
2022/05/02 04:44:50;;;;;;;5.10;4.60;;;15.70;95.40;;;16.34;48.13;101487.41;4950347;28;97178;-64
2022/05/02 04:47:16;;;;;;;6.20;5.60;;;15.70;95.20;;;16.35;47.91;101484.72;4931583;28;98564;-64
2022/05/02 04:49:43;;;;;;;5.77;5.20;;;15.80;95.20;;;16.34;47.94;101482.09;4940678;28;97046;-63
2022/05/02 04:52:08;;;;;;;8.93;8.10;;;15.70;95.10;;;16.32;48.16;101484.84;4933715;28;123624;-63
2022/05/02 04:54:34;;;;;;;5.30;4.80;;;15.70;95.40;;;16.33;47.99;101478.56;4935784;28;106097;-63
2022/05/02 04:57:01;;;;;;;7.10;6.40;;;15.70;95.20;;;16.34;48.00;101482.09;4932033;28;122994;-64
2022/05/02 04:59:26;;;;;;;10.77;9.67;;;15.70;95.40;;;16.33;48.02;101481.22;4942988;28;97298;-64
2022/05/02 05:01:52;;;;;;;10.93;9.93;;;15.80;95.60;;;16.30;47.99;101481.38;4932008;28;109515;-63
2022/05/02 05:04:18;;;;;;;5.00;4.60;;;15.70;95.60;;;16.32;48.31;101479.50;4940602;28;114712;-64
2022/05/02 05:06:44;;;;;;;9.87;8.53;;;15.70;95.80;;;16.32;47.88;101479.50;4932064;28;117737;-63
2022/05/02 05:09:10;;;;;;;17.63;11.70;;;15.70;95.30;;;16.33;47.93;101475.03;4929345;28;113918;-63
2022/05/02 05:12:24;;;;;;;11.83;9.60;;;15.70;95.50;;;16.30;48.40;101480.53;4955190;28;97264;-63
2022/05/02 05:18:43;;;;;;;5.20;4.70;;;15.60;96.10;;;16.27;48.37;101478.88;4951099;28;100409;-63
2022/05/02 05:21:49;;;;;;;8.73;7.47;;;15.60;96.00;;;16.29;48.07;101479.66;4932802;28;100595;-63
2022/05/02 05:25:17;;;;;;;8.37;7.37;;;15.70;95.20;;;16.30;48.21;101480.53;4938269;28;97920;-63
2022/05/02 05:28:03;;;;;;;6.83;5.17;;;15.60;95.40;;;16.32;48.13;101474.19;4933088;28;98672;-63
2022/05/02 05:30:38;;;;;;;4.57;4.17;;;15.70;95.60;;;16.32;48.13;101473.31;4933803;28;98689;-64
2022/05/02 05:33:57;;;;;;;4.30;3.90;;;15.70;95.70;;;16.39;48.04;101473.91;4934655;28;97090;-64
2022/05/02 05:36:32;;;;;;;9.23;8.33;;;15.80;95.40;;;16.41;48.09;101472.91;4914223;28;98444;-64
2022/05/02 05:39:10;;;;;;;4.60;3.30;;;15.90;95.40;;;16.46;47.96;101480.66;4932284;28;96905;-63
2022/05/02 05:42:00;;;;;;;13.67;8.93;;;16.00;95.30;;;16.48;47.69;101473.47;4930805;28;96693;-64
2022/05/02 05:44:47;;;;;;;9.73;8.80;;;16.00;95.10;;;16.51;47.80;101481.34;4934412;28;97189;-64
2022/05/02 05:47:31;;;;;;;16.13;12.23;;;16.00;95.50;;;16.52;47.79;101480.41;4932883;28;96823;-63
2022/05/02 05:50:22;;;;;;;13.50;11.50;;;16.00;95.30;;;16.57;47.65;101479.22;4938616;28;97425;-63
2022/05/02 05:53:34;;;;;;;12.80;11.47;;;16.10;95.10;;;16.61;47.44;101485.25;4935870;28;101694;-63
2022/05/02 05:56:06;;;;;;;10.80;9.20;;;16.10;94.50;;;16.46;47.87;101488.66;4933793;28;101742;-64
2022/05/02 05:59:08;;;;;;;14.50;11.00;;;15.90;95.10;;;16.49;47.66;101491.16;4930574;28;97517;-64
2022/05/02 06:01:51;;;;;;;6.77;5.53;;;15.90;95.20;;;16.49;47.62;101483.19;4948010;28;96977;-64
2022/05/02 06:04:19;;;;;;;9.30;7.07;;;16.00;94.90;;;16.48;47.73;101489.44;4937344;28;97647;-63
2022/05/02 06:06:47;;;;;;;15.03;11.67;;;16.00;94.90;;;16.51;47.53;101491.97;4932228;28;122398;-63
2022/05/02 06:09:15;;;;;;;13.87;11.80;;;16.00;94.80;;;16.53;47.61;101487.44;4950877;28;97208;-63
2022/05/02 06:11:47;;;;;;;10.03;7.53;;;16.00;94.60;;;16.55;47.45;101483.78;4934392;28;96817;-63
2022/05/02 06:14:14;;;;;;;18.60;13.47;;;16.10;94.90;;;16.56;47.54;101487.28;4950706;28;97095;-64
2022/05/02 06:19:29;;;;;;;14.57;13.00;;;16.20;94.80;;;16.68;47.17;101486.75;4942951;28;96993;-63
2022/05/02 06:21:56;;;;;;;14.00;12.60;;;16.40;93.70;;;16.73;46.96;101479.38;4934953;28;97443;-63
2022/05/02 06:24:27;;;;;;;17.73;13.83;;;16.40;93.90;;;16.76;46.93;101489.88;4934505;28;97029;-64
2022/05/02 06:26:55;;;;;;;6.70;6.03;;;16.50;94.00;;;16.76;47.11;101489.88;4951244;28;103767;-63
2022/05/02 06:29:23;;;;;;;10.27;9.17;;;16.40;94.30;;;16.77;46.95;101486.28;4958289;28;97360;-63
2022/05/02 06:31:52;;;;;;;12.30;9.30;;;16.40;94.50;;;16.79;46.88;101483.56;4968969;28;97411;-63
2022/05/02 06:34:29;;;;;;;16.40;13.17;;;16.40;94.50;;;16.74;47.09;101491.75;4958130;28;98212;-63
2022/05/02 06:37:31;;;;;;;12.83;11.53;;;16.30;95.20;;;16.67;47.54;101490.34;4951887;28;100630;-64
2022/05/02 06:40:40;;;;;;;18.67;14.43;;;16.20;95.40;;;16.55;47.29;101490.91;4953970;28;98968;-63
2022/05/02 06:44:04;;;;;;;14.47;12.00;;;16.00;95.10;;;16.49;47.96;101493.81;4933217;28;97706;-64
2022/05/02 06:46:46;;;;;;;16.13;13.50;;;15.90;95.30;;;16.44;47.76;101487.88;4928449;28;101844;-63
2022/05/02 06:49:13;;;;;;;14.13;12.37;;;16.00;95.20;;;16.44;47.97;101491.38;4933747;28;96635;-63
2022/05/02 06:51:49;;;;;;;17.93;13.47;;;16.00;95.20;;;16.58;47.79;101490.75;4942022;28;99835;-63
2022/05/02 06:55:32;;;;;;;19.07;13.80;;;16.20;94.40;;;16.61;46.15;101485.25;4939463;28;97302;-63
2022/05/02 06:58:09;;;;;;;17.77;13.97;;;16.40;94.10;;;16.48;47.04;101492.09;4871603;28;100597;-63
2022/05/02 07:00:46;;;;;;;16.90;13.97;;;16.10;94.30;;;16.46;47.14;101496.63;4855577;28;97612;-64
2022/05/02 07:04:00;;;;;;;16.13;14.23;;;16.00;94.50;;;16.40;47.04;101491.63;4922667;28;97255;-63
2022/05/02 07:06:56;;;;;;;15.27;12.57;;;16.00;94.60;;;16.47;47.77;101499.22;4943257;28;97737;-63
2022/05/02 07:09:31;;;;;;;14.90;12.57;;;16.00;95.10;;;16.45;47.94;101494.91;4957212;28;97454;-63
2022/05/02 07:12:20;;;;;;;19.50;14.63;;;16.10;95.00;;;16.36;47.84;101491.75;4948152;28;102519;-63
2022/05/02 07:15:13;;;;;;;16.93;13.40;;;16.00;94.90;;;16.32;48.09;101489.28;4955797;28;97348;-63
2022/05/02 07:17:57;;;;;;;13.60;8.53;;;15.90;95.10;;;16.40;48.07;101494.28;4953280;28;102506;-63
2022/05/02 07:20:38;;;;;;;14.63;9.97;;;16.00;95.20;;;16.50;47.76;101492.91;4959779;28;98914;-63
2022/05/02 07:23:23;;;;;;;15.30;12.67;;;16.20;95.00;;;16.52;47.76;101491.03;4941096;28;100221;-63
2022/05/02 07:26:04;;;;;;;16.13;13.37;;;16.20;95.00;;;16.47;48.02;101495.69;4936236;28;96962;-63
2022/05/02 07:28:45;;;;;;;14.50;12.73;;;16.10;95.40;;;16.43;47.77;101496.78;4948751;28;96922;-63
2022/05/02 07:31:22;;;;;;;16.73;13.17;;;16.00;95.00;;;16.55;47.52;101490.91;4941110;28;97518;-63
2022/05/02 07:33:51;;;;;;;12.97;11.70;;;16.20;94.80;;;16.65;47.27;101494.84;4948169;28;101517;-63
2022/05/02 07:36:22;;;;;;;18.17;12.67;;;16.40;94.60;;;16.67;47.13;101490.34;4938250;28;97071;-63
2022/05/02 07:38:56;;;;;;;4.80;4.20;;;16.50;94.10;;;16.77;47.01;101486.28;4933339;28;97115;-63
2022/05/02 07:41:26;;;;;;;16.83;12.43;;;16.60;94.30;;;16.88;46.76;101491.09;4952358;28;96763;-63
2022/05/02 07:44:13;;;;;;;11.63;10.43;;;16.70;94.00;;;16.99;46.47;101491.44;4945115;28;101576;-63
2022/05/02 07:46:46;;;;;;;13.07;11.73;;;16.90;93.50;;;17.01;46.32;101488.69;4954628;28;97153;-63
2022/05/02 07:49:22;;;;;;;12.03;10.10;;;16.90;93.30;;;17.09;46.06;101481.19;4936610;28;96852;-63
2022/05/02 07:51:52;;;;;;;9.33;8.03;;;17.00;93.20;;;17.02;46.27;101491.28;4946213;28;97220;-64
2022/05/02 07:54:30;;;;;;;5.27;4.10;;;16.90;93.80;;;17.11;46.16;101481.97;4953569;28;97183;-63
2022/05/02 07:57:02;;;;;;;16.67;12.43;;;16.90;93.50;;;17.13;46.58;101488.97;4951284;28;98403;-63
2022/05/02 07:59:39;;;;;;;15.50;13.20;;;17.00;93.80;;;17.19;45.91;101488.63;4953258;28;96992;-64
2022/05/02 08:02:06;;;;;;;4.07;3.77;;;17.10;93.20;;;17.29;45.91;101489.06;4942892;28;96864;-63
2022/05/02 08:04:32;;;;;;;3.80;3.43;;;17.20;93.00;;;17.36;45.53;101485.16;4954170;28;97086;-64
2022/05/02 08:07:13;;;;;;;14.27;11.77;;;17.30;92.70;;;17.47;45.31;101477.44;4935445;28;97399;-63
2022/05/02 08:10:14;;;;;;;16.03;13.47;;;17.50;92.40;;;17.51;45.15;101483.50;4944048;28;96815;-63
2022/05/02 08:13:06;;;;;;;15.37;11.27;;;17.50;92.10;;;17.53;44.94;101484.28;4946648;28;99045;-63
2022/05/02 08:15:44;;;;;;;16.77;13.20;;;17.60;92.30;;;17.44;45.30;101474.94;4944869;28;97029;-63
2022/05/02 08:18:53;;;;;;;17.73;14.03;;;17.40;92.60;;;17.42;45.38;101483.97;4930829;28;99303;-64
2022/05/02 08:21:24;;;;;;;16.23;13.27;;;17.30;92.50;;;17.38;45.35;101477.94;4933466;28;97623;-63
2022/05/02 08:27:27;;;;;;;14.23;12.07;;;17.20;91.90;;;17.32;45.64;101478.22;4939023;28;99895;-64
2022/05/02 08:30:25;;;;;;;16.27;13.07;;;17.20;92.60;;;17.33;45.54;101468.41;4934106;28;97256;-64
2022/05/02 08:33:07;;;;;;;17.17;12.33;;;17.20;92.50;;;17.32;45.58;101467.56;4927001;28;97148;-63
2022/05/02 08:36:02;;;;;;;13.53;11.93;;;17.20;92.50;;;17.42;45.53;101462.63;4942505;28;97456;-64
2022/05/02 08:38:53;;;;;;;19.57;13.80;;;17.40;92.30;;;17.43;45.33;101464.34;4951745;28;98064;-63
2022/05/02 08:41:30;;;;;;;19.80;13.90;;;17.40;92.20;;;17.35;45.72;101464.72;4964005;28;96644;-63
2022/05/02 08:44:32;;;;;;;14.33;12.63;;;17.30;92.70;;;17.37;45.69;101456.69;4933514;28;96815;-63
2022/05/02 08:48:01;;;;;;;17.50;11.33;;;17.30;92.60;;;17.41;45.65;101468.91;4946229;28;100845;-63
2022/05/02 08:50:59;;;;;;;12.87;11.53;;;17.50;92.20;;;17.46;45.40;101465.06;4930092;28;99857;-64
2022/05/02 08:54:09;;;;;;;16.17;9.93;;;17.50;92.40;;;17.51;45.40;101462.16;4920925;28;97386;-65
2022/05/02 08:57:03;;;;;;;11.87;10.47;;;17.50;92.20;;;17.58;44.84;101462.69;4943629;28;97337;-63
2022/05/02 09:00:04;;;;;;;16.30;13.03;;;17.60;91.70;;;17.61;44.73;101462.53;4934416;28;99412;-63
2022/05/02 09:03:22;;;;;;;16.00;12.30;;;17.60;91.80;;;17.59;45.03;101464.41;4952250;28;98613;-63
2022/05/02 09:06:30;;;;;;;14.10;10.83;;;17.60;91.90;;;17.43;45.21;101456.34;4930798;28;96804;-63
2022/05/02 09:09:51;;;;;;;16.03;10.70;;;17.50;92.10;;;17.46;44.98;101457.03;4926029;28;97230;-63
2022/05/02 09:13:04;;;;;;;8.17;6.40;;;17.60;91.50;;;17.61;45.02;101452.72;4945663;28;102365;-63
2022/05/02 09:16:27;;;;;;;20.67;13.57;;;17.70;91.90;;;17.64;45.06;101449.03;4944959;28;101550;-64
2022/05/02 09:19:54;;;;;;;6.20;4.30;;;17.70;91.90;;;17.74;44.71;101450.31;4934351;28;97099;-63
2022/05/02 09:22:49;;;;;;;15.53;12.57;;;17.70;91.80;;;17.78;45.07;101441.19;4926779;28;99049;-63
2022/05/02 09:25:38;;;;;;;13.47;12.13;;;17.80;91.90;;;17.83;44.22;101442.69;4919706;28;100319;-64
2022/05/02 09:28:30;;;;;;;22.67;12.07;;;17.90;91.50;;;17.78;44.14;101436.72;4924425;28;99848;-63
2022/05/02 09:31:26;;;;;;;13.63;11.70;;;17.90;91.30;;;17.76;44.50;101435.06;4932320;28;98028;-64
2022/05/02 09:34:03;;;;;;;18.70;10.87;;;17.80;91.70;;;17.73;44.75;101440.56;4935614;28;97471;-63
2022/05/02 09:36:43;;;;;;;6.37;4.90;;;17.80;91.70;;;17.80;44.87;101431.31;4936164;28;97444;-64
2022/05/02 09:39:24;;;;;;;4.57;4.17;;;17.80;91.70;;;17.87;44.84;101429.16;4943484;28;101509;-64
2022/05/02 09:41:52;;;;;;;14.33;10.80;;;17.90;91.60;;;17.84;44.38;101427.53;4943268;28;98189;-63
2022/05/02 09:51:45;;;;;;;13.93;11.00;;;17.90;91.80;;;17.87;44.34;101411.34;4911672;28;96482;-63
2022/05/02 09:57:54;;;;;;;6.37;5.00;;;17.90;91.50;;;17.89;44.49;101404.13;4937989;28;97367;-63
2022/05/02 10:03:22;;;;;;;12.17;10.87;;;18.10;92.40;;;17.86;44.34;101404.28;4936578;28;101597;-63
2022/05/02 10:06:05;;;;;;;11.53;10.33;;;18.10;91.10;;;17.88;45.23;101405.06;4946363;28;96916;-63
2022/05/02 10:08:55;;;;;;;9.47;8.10;;;18.10;91.90;;;17.92;45.31;101398.59;4941064;28;97207;-64
2022/05/02 10:11:51;;;;;;;10.93;8.73;;;18.10;91.90;;;18.02;44.96;101389.16;4932777;28;97155;-63
2022/05/02 10:15:17;;;;;;;15.60;13.70;;;18.20;91.40;;;18.10;45.19;101402.97;4934353;28;101358;-64
2022/05/02 10:18:10;;;;;;;11.57;9.33;;;18.20;91.80;;;18.06;44.90;101397.84;4869193;28;98248;-63
2022/05/02 10:21:02;;;;;;;11.20;9.27;;;18.20;91.60;;;18.09;45.16;101395.91;4924298;28;97719;-63
2022/05/02 10:24:11;;;;;;;7.67;6.47;;;18.20;91.60;;;18.16;44.74;101390.19;4937413;28;96628;-63
2022/05/02 10:27:26;;;;;;;12.97;10.03;;;18.30;91.60;;;18.19;44.13;101385.53;4948454;28;97091;-64
2022/05/02 10:30:12;;;;;;;14.00;12.13;;;18.30;91.60;;;18.28;45.45;101390.38;4930207;28;96860;-64
2022/05/02 10:32:56;;;;;;;12.97;9.63;;;18.40;92.10;;;18.27;44.96;101385.13;4954434;28;97407;-64
2022/05/02 10:35:25;;;;;;;17.00;11.47;;;18.40;91.70;;;18.33;45.57;101385.63;4951779;28;97454;-63
2022/05/02 10:38:03;;;;;;;15.27;9.33;;;18.50;92.00;;;18.36;45.03;101376.59;4948116;28;99839;-63
2022/05/02 10:40:38;;;;;;;13.70;9.97;;;18.50;91.60;;;18.36;44.48;101387.25;4957433;28;97335;-64
2022/05/02 10:43:09;;;;;;;11.63;8.40;;;18.50;91.50;;;18.39;44.01;101371.09;4950171;28;96664;-63
2022/05/02 10:45:38;;;;;;;10.13;8.97;;;18.60;91.30;;;18.41;45.55;101377.19;4945034;28;97568;-63
2022/05/02 10:48:15;;;;;;;18.43;12.57;;;18.60;91.80;;;18.50;44.26;101373.97;4935515;28;97551;-64
2022/05/02 10:50:53;;;;;;;9.90;8.70;;;18.70;91.50;;;18.48;45.20;101373.22;4943444;28;97041;-63
2022/05/02 10:53:30;;;;;;;15.93;11.27;;;18.70;91.70;;;18.44;43.82;101371.69;4938271;28;96752;-63
2022/05/02 10:56:36;;;;;;;13.00;11.07;;;18.70;90.60;;;18.52;44.00;101371.25;4953737;28;101584;-63
2022/05/02 10:59:05;;;;;;;13.63;11.37;;;18.70;90.60;;;18.52;43.87;101366.78;4928589;28;101639;-63
2022/05/02 11:01:58;;;;;;;13.67;12.27;;;18.80;90.90;;;18.58;43.88;101366.41;4935145;28;97054;-64
2022/05/02 11:04:51;;;;;;;9.23;8.33;;;18.80;90.70;;;18.66;43.35;101358.84;4929660;28;97120;-63
2022/05/02 11:07:39;;;;;;;18.23;12.03;;;18.90;90.40;;;18.82;43.95;101357.94;4948165;28;101981;-63
2022/05/02 11:10:11;;;;;;;11.93;10.20;;;19.10;91.40;;;18.83;44.01;101360.53;4949479;28;101039;-63
2022/05/02 11:13:07;;;;;;;14.67;11.37;;;19.10;90.60;;;18.88;43.38;101358.44;4955584;28;96835;-63
2022/05/02 11:16:16;;;;;;;7.87;7.03;;;19.10;91.10;;;18.90;42.87;101350.31;4943590;28;96738;-63